createdAt,value
2023-04-28T00:02:27.081Z,215.10
2023-04-28T00:04:55.305Z,209.02
2023-04-28T00:07:25.254Z,217.50
2023-04-28T00:09:52.943Z,211.30
2023-04-28T00:12:20.663Z,205.63
2023-04-28T00:14:48.413Z,217.63
2023-04-28T00:17:16.176Z,226.60
2023-04-28T00:19:43.846Z,201.02
2023-04-28T00:22:11.577Z,214.23
2023-04-28T00:24:41.808Z,228.18
2023-04-28T00:27:09.410Z,248.75
2023-04-28T00:29:37.727Z,271.52
2023-04-28T00:32:05.455Z,278.38
2023-04-28T00:34:37.271Z,283.60
2023-04-28T00:37:05.142Z,298.15
2023-04-28T00:39:32.895Z,311.05
2023-04-28T00:42:02.272Z,293.10
2023-04-28T00:44:29.990Z,320.08
2023-04-28T00:47:00.160Z,299.20
2023-04-28T00:49:28.050Z,307.75
2023-04-28T00:51:55.768Z,316.70
2023-04-28T00:54:23.564Z,314.98
2023-04-28T00:56:51.709Z,303.58
2023-04-28T00:59:20.625Z,313.88
2023-04-28T01:01:48.942Z,294.75
2023-04-28T01:04:18.293Z,308.50
2023-04-28T01:06:47.886Z,286.30
2023-04-28T01:09:15.618Z,296.73
2023-04-28T01:11:43.453Z,296.15
2023-04-28T01:14:12.508Z,276.40
2023-04-28T01:16:44.267Z,306.80
2023-04-28T01:19:18.841Z,296.92
2023-04-28T01:21:46.694Z,291.80
2023-04-28T01:24:21.565Z,275.50
2023-04-28T01:26:49.187Z,288.05
2023-04-28T01:29:16.814Z,301.10
2023-04-28T01:31:44.535Z,311.92
2023-04-28T01:34:12.189Z,299.83
2023-04-28T01:36:39.871Z,294.52
2023-04-28T01:39:08.115Z,312.38
2023-04-28T01:41:37.095Z,318.55
2023-04-28T01:44:08.148Z,294.48
2023-04-28T01:46:36.368Z,317.02
2023-04-28T01:49:04.106Z,317.88
2023-04-28T01:51:32.667Z,305.73
2023-04-28T01:54:00.328Z,310.17
2023-04-28T01:56:28.176Z,296.55
2023-04-28T01:58:59.080Z,305.80
2023-04-28T02:01:27.091Z,305.50
2023-04-28T02:03:56.136Z,327.00
2023-04-28T02:06:24.708Z,305.38
2023-04-28T02:08:52.326Z,323.95
2023-04-28T02:11:20.004Z,316.88
2023-04-28T02:13:48.034Z,321.05
2023-04-28T02:16:17.057Z,309.33
2023-04-28T02:18:44.652Z,324.88
2023-04-28T02:21:13.646Z,310.52
2023-04-28T02:23:41.563Z,318.10
2023-04-28T02:26:09.170Z,332.13
2023-04-28T02:28:36.981Z,328.33
2023-04-28T02:31:07.746Z,315.55
2023-04-28T02:33:37.545Z,327.40
2023-04-28T02:36:07.171Z,315.55
2023-04-28T02:38:35.037Z,319.73
2023-04-28T02:41:04.847Z,325.02
2023-04-28T02:43:32.834Z,328.13
2023-04-28T02:46:01.037Z,316.15
2023-04-28T02:48:28.870Z,320.40
2023-04-28T02:50:57.774Z,329.20
2023-04-28T02:53:25.591Z,332.77
2023-04-28T02:55:53.930Z,333.17
2023-04-28T02:58:21.836Z,332.08
2023-04-28T03:00:49.542Z,308.73
2023-04-28T03:03:18.416Z,310.20
2023-04-28T03:05:46.730Z,293.15
2023-04-28T03:08:15.676Z,325.77
2023-04-28T03:10:43.821Z,300.48
2023-04-28T03:13:12.509Z,325.98
2023-04-28T03:15:40.611Z,315.70
2023-04-28T03:18:08.311Z,311.00
2023-04-28T03:20:36.454Z,304.10
2023-04-28T03:23:04.390Z,326.80
2023-04-28T03:25:33.387Z,301.88
2023-04-28T03:28:01.878Z,305.60
2023-04-28T03:30:29.640Z,326.63
2023-04-28T03:32:58.996Z,307.50
2023-04-28T03:35:26.691Z,301.77
2023-04-28T03:37:54.479Z,331.67
2023-04-28T03:40:22.311Z,334.58
2023-04-28T03:43:24.064Z,316.23
2023-04-28T03:46:12.014Z,306.25
2023-04-28T03:48:39.734Z,325.23
2023-04-28T03:51:08.066Z,300.30
2023-04-28T03:53:35.725Z,310.75
2023-04-28T03:56:03.407Z,311.75
2023-04-28T03:58:32.404Z,296.23
2023-04-28T04:01:02.038Z,306.00
2023-04-28T04:03:29.852Z,293.27
2023-04-28T04:05:58.154Z,297.73
2023-04-28T04:08:26.056Z,298.40
2023-04-28T04:10:54.944Z,283.65
2023-04-28T04:13:22.824Z,296.23
2023-04-28T04:15:53.062Z,285.48
2023-04-28T04:18:22.924Z,285.92
2023-04-28T04:21:13.594Z,287.30
2023-04-28T04:23:41.336Z,289.77
2023-04-28T04:26:08.987Z,283.35
2023-04-28T04:28:37.440Z,272.23
2023-04-28T04:31:08.421Z,292.75
2023-04-28T04:33:37.284Z,301.67
2023-04-28T04:36:07.290Z,275.70
2023-04-28T04:38:34.955Z,285.00
2023-04-28T04:41:12.822Z,278.40
2023-04-28T04:43:40.867Z,295.70
2023-04-28T04:46:10.217Z,256.70
2023-04-28T04:48:38.098Z,257.60
2023-04-28T04:51:05.984Z,269.92
2023-04-28T04:53:34.225Z,278.97
2023-04-28T04:56:02.683Z,283.60
2023-04-28T04:58:30.758Z,305.15
2023-04-28T05:01:14.910Z,303.13
2023-04-28T05:03:43.306Z,286.50
2023-04-28T05:06:11.470Z,297.00
2023-04-28T05:08:45.785Z,293.92
2023-04-28T05:11:13.456Z,293.75
2023-04-28T05:13:42.541Z,291.08
2023-04-28T05:16:10.454Z,318.25
2023-04-28T05:19:17.811Z,281.85
2023-04-28T05:21:47.456Z,299.67
2023-04-28T05:24:15.385Z,291.60
2023-04-28T05:26:43.449Z,307.15
2023-04-28T05:29:11.610Z,308.90
2023-04-28T05:31:39.767Z,309.10
2023-04-28T05:34:07.716Z,281.08
2023-04-28T05:36:37.007Z,298.55
2023-04-28T05:39:06.930Z,300.35
2023-04-28T05:41:36.410Z,293.52
2023-04-28T05:44:04.344Z,287.13
2023-04-28T05:46:32.530Z,287.35
2023-04-28T05:49:01.842Z,294.98
2023-04-28T05:51:34.688Z,307.02
2023-04-28T05:54:04.537Z,290.50
2023-04-28T05:56:37.273Z,295.88
2023-04-28T05:59:04.960Z,298.45
2023-04-28T06:01:32.918Z,320.05
2023-04-28T06:04:01.035Z,325.50
2023-04-28T06:06:29.251Z,318.80
2023-04-28T06:08:57.105Z,321.85
2023-04-28T06:11:28.132Z,331.27
2023-04-28T06:13:55.781Z,313.65
2023-04-28T06:16:23.647Z,342.80
2023-04-28T06:18:52.011Z,343.30
2023-04-28T06:21:21.454Z,343.50
2023-04-28T06:23:49.273Z,343.08
2023-04-28T06:26:18.339Z,341.98
2023-04-28T06:28:47.639Z,330.13
2023-04-28T06:31:15.610Z,345.00
2023-04-28T06:33:43.312Z,339.77
2023-04-28T06:39:06.689Z,313.70
2023-04-28T06:41:35.517Z,350.20
2023-04-28T06:44:06.649Z,341.70
2023-04-28T06:46:35.770Z,354.30
2023-04-28T06:49:03.891Z,357.17
2023-04-28T06:51:32.870Z,350.63
2023-04-28T06:54:00.552Z,341.00
2023-04-28T06:56:28.805Z,355.63
2023-04-28T06:58:58.817Z,337.30
2023-04-28T07:01:27.960Z,357.23
2023-04-28T07:03:55.793Z,338.00
2023-04-28T07:06:23.833Z,346.35
2023-04-28T07:08:51.696Z,348.20
2023-04-28T07:11:19.406Z,353.30
2023-04-28T07:13:49.243Z,351.85
2023-04-28T07:16:17.026Z,332.50
2023-04-28T07:18:46.441Z,341.02
2023-04-28T07:21:14.099Z,351.13
2023-04-28T07:23:41.856Z,371.90
2023-04-28T07:26:09.746Z,345.30
2023-04-28T07:28:37.426Z,332.73
2023-04-28T07:31:05.140Z,332.83
2023-04-28T07:33:32.949Z,332.58
2023-04-28T07:36:02.276Z,357.00
2023-04-28T07:38:30.291Z,347.27
2023-04-28T07:40:58.263Z,342.08
2023-04-28T07:43:26.321Z,366.15
2023-04-28T07:45:54.237Z,359.50
2023-04-28T07:48:22.214Z,360.58
2023-04-28T07:50:49.980Z,338.30
2023-04-28T07:53:19.189Z,361.10
2023-04-28T07:55:46.997Z,368.70
2023-04-28T07:58:14.754Z,349.60
2023-04-28T08:00:42.441Z,344.08
2023-04-28T08:03:10.305Z,333.38
2023-04-28T08:05:39.663Z,349.20
2023-04-28T08:08:07.384Z,361.92
2023-04-28T08:10:36.381Z,333.98
2023-04-28T08:13:04.116Z,387.35
2023-04-28T08:15:31.932Z,351.20
2023-04-28T08:17:59.940Z,360.27
2023-04-28T08:20:27.679Z,372.40
2023-04-28T08:22:55.584Z,359.50
2023-04-28T08:25:23.700Z,360.85
2023-04-28T08:27:52.661Z,369.35
2023-04-28T08:30:20.417Z,365.65
2023-04-28T08:32:48.226Z,351.80
2023-04-28T08:35:16.281Z,386.27
2023-04-28T08:37:44.365Z,367.05
2023-04-28T08:40:12.785Z,374.45
2023-04-28T08:42:40.513Z,373.08
2023-04-28T08:45:14.413Z,356.67
2023-04-28T08:47:45.877Z,381.63
2023-04-28T08:50:15.283Z,372.58
2023-04-28T08:52:43.835Z,379.50
2023-04-28T08:55:13.766Z,395.15
2023-04-28T08:57:44.535Z,370.60
2023-04-28T09:00:14.601Z,357.05
2023-04-28T09:02:42.894Z,367.23
2023-04-28T09:05:12.499Z,378.13
2023-04-28T09:07:40.711Z,352.85
2023-04-28T09:10:22.511Z,370.73
2023-04-28T09:12:53.501Z,355.45
2023-04-28T09:15:33.360Z,350.90
2023-04-28T09:18:02.666Z,369.88
2023-04-28T09:20:32.953Z,360.40
2023-04-28T09:23:14.784Z,345.50
2023-04-28T09:25:55.981Z,363.67
2023-04-28T09:28:24.008Z,362.08
2023-04-28T09:30:53.037Z,363.55
2023-04-28T09:33:21.635Z,357.00
2023-04-28T09:35:49.600Z,373.58
2023-04-28T09:38:17.708Z,368.80
2023-04-28T09:40:56.672Z,354.40
2023-04-28T09:43:29.076Z,372.40
2023-04-28T09:45:59.900Z,364.25
2023-04-28T09:48:29.663Z,368.73
2023-04-28T09:50:59.348Z,346.00
2023-04-28T09:53:28.161Z,378.52
2023-04-28T09:55:57.316Z,377.20
2023-04-28T09:58:26.844Z,384.73
2023-04-28T10:00:56.051Z,386.33
2023-04-28T10:03:29.065Z,368.52
2023-04-28T10:05:58.237Z,366.63
2023-04-28T10:08:28.058Z,386.23
2023-04-28T10:10:56.851Z,377.70
2023-04-28T10:13:25.698Z,384.90
2023-04-28T10:15:55.362Z,380.38
2023-04-28T10:18:25.216Z,381.15
2023-04-28T10:20:57.405Z,371.55
2023-04-28T10:23:47.958Z,368.52
2023-04-28T10:26:19.205Z,376.20
2023-04-28T10:28:48.375Z,375.90
2023-04-28T10:31:17.882Z,387.38
2023-04-28T10:33:47.163Z,384.80
2023-04-28T10:36:49.068Z,364.50
2023-04-28T10:39:16.822Z,372.30
2023-04-28T10:41:47.103Z,375.85
2023-04-28T10:44:44.760Z,388.35
2023-04-28T10:47:12.780Z,359.52
2023-04-28T10:50:07.348Z,398.85
2023-04-28T10:52:51.027Z,370.88
2023-04-28T10:55:32.327Z,378.20
2023-04-28T10:58:36.160Z,379.00
2023-04-28T11:01:27.123Z,390.95
2023-04-28T11:04:03.175Z,388.92
2023-04-28T11:06:35.365Z,379.27
2023-04-28T11:09:04.662Z,385.42
2023-04-28T11:11:34.804Z,390.25
2023-04-28T11:14:36.525Z,402.85
2023-04-28T11:17:05.754Z,371.25
2023-04-28T11:19:35.279Z,396.00
2023-04-28T11:22:09.872Z,370.73
2023-04-28T11:24:37.534Z,383.58
2023-04-28T11:27:05.418Z,390.38
2023-04-28T11:29:35.092Z,383.75
2023-04-28T11:32:03.729Z,384.80
2023-04-28T11:34:31.846Z,369.38
2023-04-28T11:36:59.535Z,387.73
2023-04-28T11:39:30.086Z,391.67
2023-04-28T11:41:58.701Z,383.35
2023-04-28T11:44:27.692Z,398.88
2023-04-28T11:46:57.337Z,398.65
2023-04-28T11:49:25.877Z,406.02
2023-04-28T11:51:54.685Z,400.70
2023-04-28T11:54:23.958Z,398.65
2023-04-28T11:56:54.154Z,428.23
2023-04-28T11:59:27.120Z,416.13
2023-04-28T12:01:57.227Z,385.73
2023-04-28T12:04:29.885Z,429.15
2023-04-28T12:07:06.300Z,407.25
2023-04-28T12:09:34.862Z,411.15
2023-04-28T12:12:05.838Z,409.70
2023-04-28T12:14:35.623Z,426.38
2023-04-28T12:17:04.061Z,398.15
2023-04-28T12:19:44.729Z,427.55
2023-04-28T12:22:12.696Z,421.20
2023-04-28T12:24:40.939Z,410.17
2023-04-28T12:27:21.786Z,419.75
2023-04-28T12:29:49.800Z,414.80
2023-04-28T12:32:18.556Z,414.65
2023-04-28T12:34:47.370Z,424.98
2023-04-28T12:37:15.320Z,429.23
2023-04-28T12:39:43.680Z,401.80
2023-04-28T12:42:11.724Z,434.92
2023-04-28T12:44:40.833Z,441.75
2023-04-28T12:47:10.865Z,420.02
2023-04-28T12:49:39.177Z,419.15
2023-04-28T12:52:07.726Z,434.67
2023-04-28T12:54:35.713Z,422.58
2023-04-28T12:57:03.955Z,423.80
2023-04-28T12:59:32.652Z,412.05
2023-04-28T13:02:01.814Z,412.13
2023-04-28T13:04:30.148Z,412.38
2023-04-28T13:06:58.495Z,444.38
2023-04-28T13:09:26.755Z,425.13
2023-04-28T13:11:54.516Z,424.73
2023-04-28T13:14:22.268Z,428.60
2023-04-28T13:16:51.704Z,413.67
2023-04-28T13:19:20.682Z,422.83
2023-04-28T13:21:48.496Z,427.48
2023-04-28T13:24:16.353Z,407.52
2023-04-28T13:26:45.056Z,435.17
2023-04-28T13:29:14.330Z,431.77
2023-04-28T13:31:42.988Z,434.80
2023-04-28T13:34:15.902Z,440.33
2023-04-28T13:36:45.848Z,428.83
2023-04-28T13:39:14.713Z,422.92
2023-04-28T13:41:42.764Z,439.88
2023-04-28T13:44:10.645Z,419.30
2023-04-28T13:46:38.367Z,442.58
2023-04-28T13:49:06.161Z,429.52
2023-04-28T13:51:33.916Z,412.60
2023-04-28T13:54:04.442Z,423.80
2023-04-28T13:56:32.827Z,411.58
2023-04-28T13:59:00.757Z,425.30
2023-04-28T14:01:28.469Z,430.23
2023-04-28T14:03:56.505Z,438.80
2023-04-28T14:06:24.346Z,446.02
2023-04-28T14:08:52.042Z,457.48
2023-04-28T14:11:21.483Z,419.95
2023-04-28T14:13:49.125Z,397.23
2023-04-28T14:16:16.859Z,409.50
2023-04-28T14:18:44.597Z,397.98
2023-04-28T14:21:12.246Z,436.58
2023-04-28T14:23:39.939Z,421.85
2023-04-28T14:26:07.684Z,421.77
2023-04-28T14:28:37.402Z,406.85
2023-04-28T14:31:07.363Z,424.23
2023-04-28T14:33:35.325Z,407.77
2023-04-28T14:36:03.063Z,425.70
2023-04-28T14:38:31.229Z,426.15
2023-04-28T14:40:59.105Z,432.95
2023-04-28T14:43:26.794Z,412.70
2023-04-28T14:45:55.795Z,391.70
2023-04-28T14:48:23.593Z,405.17
2023-04-28T14:50:51.570Z,407.95
2023-04-28T14:53:19.300Z,412.42
2023-04-28T14:55:47.273Z,407.08
2023-04-28T14:58:15.324Z,413.52
2023-04-28T15:00:43.575Z,436.83
2023-04-28T15:03:12.830Z,445.45
2023-04-28T15:05:40.656Z,419.10
2023-04-28T15:08:08.371Z,438.35
2023-04-28T15:10:39.644Z,428.10
2023-04-28T15:13:07.566Z,435.80
2023-04-28T15:15:35.445Z,417.13
2023-04-28T15:18:04.171Z,434.83
2023-04-28T15:20:34.274Z,438.30
2023-04-28T15:23:02.011Z,448.63
2023-04-28T15:25:30.239Z,438.65
2023-04-28T15:27:58.989Z,440.98
2023-04-28T15:30:26.660Z,456.63
2023-04-28T15:32:54.364Z,439.83
2023-04-28T15:35:22.207Z,406.33
2023-04-28T15:37:53.181Z,398.25
2023-04-28T15:40:21.368Z,394.45
2023-04-28T15:42:51.529Z,396.88
2023-04-28T15:45:21.074Z,396.83
2023-04-28T15:47:50.165Z,409.20
2023-04-28T15:50:19.912Z,410.92
2023-04-28T15:52:50.048Z,379.55
2023-04-28T15:55:20.827Z,422.42
2023-04-28T15:57:49.559Z,392.48
2023-04-28T16:00:17.460Z,377.48
2023-04-28T16:02:45.953Z,391.60
2023-04-28T16:05:14.280Z,393.48
2023-04-28T16:07:42.017Z,402.20
2023-04-28T16:10:11.734Z,383.48
2023-04-28T16:12:41.861Z,392.88
2023-04-28T16:15:12.145Z,409.80
2023-04-28T16:17:40.721Z,394.33
2023-04-28T16:20:10.871Z,389.80
2023-04-28T16:22:41.784Z,382.35
2023-04-28T16:25:10.471Z,394.77
2023-04-28T16:27:41.386Z,387.98
2023-04-28T16:30:10.448Z,400.27
2023-04-28T16:32:38.568Z,389.45
2023-04-28T16:35:11.255Z,393.38
2023-04-28T16:37:41.131Z,397.08
2023-04-28T16:40:10.067Z,395.48
2023-04-28T16:42:37.954Z,391.40
2023-04-28T16:45:08.179Z,402.80
2023-04-28T16:47:35.982Z,398.77
2023-04-28T16:50:03.659Z,383.38
2023-04-28T16:52:31.774Z,381.40
2023-04-28T16:55:00.420Z,371.25
2023-04-28T16:57:28.181Z,365.48
2023-04-28T16:59:55.841Z,400.10
2023-04-28T17:02:25.320Z,373.08
2023-04-28T17:04:53.106Z,404.75
2023-04-28T17:07:20.789Z,398.08
2023-04-28T17:09:48.955Z,387.05
2023-04-28T17:12:16.800Z,389.08
2023-04-28T17:14:44.468Z,382.52
2023-04-28T17:17:12.111Z,355.48
2023-04-28T17:19:42.119Z,393.63
2023-04-28T17:22:09.799Z,357.58
2023-04-28T17:24:37.529Z,366.42
2023-04-28T17:27:05.194Z,378.17
2023-04-28T17:29:33.365Z,380.08
2023-04-28T17:32:01.225Z,380.90
2023-04-28T17:34:28.936Z,372.52
2023-04-28T17:36:58.012Z,377.00
2023-04-28T17:39:25.653Z,355.27
2023-04-28T17:41:54.118Z,373.67
2023-04-28T17:44:22.387Z,362.90
2023-04-28T17:46:50.183Z,356.63
2023-04-28T17:49:18.081Z,369.88
2023-04-28T17:51:45.783Z,394.15
2023-04-28T17:54:14.820Z,379.80
2023-04-28T17:56:42.465Z,397.70
2023-04-28T17:59:10.690Z,418.75
2023-04-28T18:01:38.407Z,389.88
2023-04-28T18:04:06.072Z,404.55
2023-04-28T18:06:33.784Z,388.75
2023-04-28T18:09:01.822Z,393.10
2023-04-28T18:11:30.937Z,395.40
2023-04-28T18:14:01.603Z,394.63
2023-04-28T18:16:29.376Z,377.10
2023-04-28T18:18:57.059Z,389.35
2023-04-28T18:21:24.849Z,396.17
2023-04-28T18:23:52.539Z,387.40
2023-04-28T18:26:20.884Z,403.98
2023-04-28T18:28:49.891Z,414.27
2023-04-28T18:31:17.578Z,386.70
2023-04-28T18:33:45.325Z,391.38
2023-04-28T18:36:13.133Z,412.35
2023-04-28T18:38:41.238Z,385.40
2023-04-28T18:41:16.094Z,411.52
2023-04-28T18:43:44.758Z,410.00
2023-04-28T18:46:13.953Z,413.35
2023-04-28T18:48:42.119Z,413.48
2023-04-28T18:51:09.928Z,416.35
2023-04-28T18:53:37.970Z,421.90
2023-04-28T18:56:05.763Z,396.83
2023-04-28T18:58:33.537Z,403.13
2023-04-28T19:01:01.304Z,404.80
2023-04-28T19:03:31.368Z,406.80
2023-04-28T19:05:59.766Z,420.50
2023-04-28T19:08:27.387Z,412.42
2023-04-28T19:10:55.062Z,408.52
2023-04-28T19:13:22.793Z,399.88
2023-04-28T19:15:53.464Z,413.30
2023-04-28T19:18:21.224Z,410.33
2023-04-28T19:20:52.097Z,395.23
2023-04-28T19:23:20.143Z,392.08
2023-04-28T19:25:48.360Z,419.33
2023-04-28T19:28:16.015Z,408.77
2023-04-28T19:30:43.734Z,398.20
2023-04-28T19:33:11.482Z,416.50
2023-04-28T19:35:39.489Z,405.55
2023-04-28T19:38:09.434Z,416.77
2023-04-28T19:40:37.120Z,393.73
2023-04-28T19:43:05.253Z,417.40
2023-04-28T19:45:34.724Z,407.52
2023-04-28T19:48:02.493Z,398.27
2023-04-28T19:50:30.275Z,422.63
2023-04-28T19:52:57.884Z,389.02
2023-04-28T19:55:27.215Z,393.27
2023-04-28T19:57:57.127Z,391.33
2023-04-28T20:00:25.512Z,388.60
2023-04-28T20:02:53.213Z,417.77
2023-04-28T20:05:21.383Z,403.60
2023-04-28T20:07:49.687Z,399.65
2023-04-28T20:10:19.069Z,395.70
2023-04-28T20:12:48.068Z,403.77
2023-04-28T20:15:16.647Z,393.30
2023-04-28T20:17:44.611Z,397.75
2023-04-28T20:20:12.722Z,431.80
2023-04-28T20:22:41.222Z,403.42
2023-04-28T20:25:10.714Z,406.25
2023-04-28T20:27:38.698Z,407.55
2023-04-28T20:30:09.747Z,394.33
2023-04-28T20:32:37.496Z,409.45
2023-04-28T20:35:06.110Z,416.08
2023-04-28T20:37:34.094Z,413.92
2023-04-28T20:40:01.797Z,401.52
2023-04-28T20:42:29.565Z,430.45
2023-04-28T20:44:57.293Z,393.95
2023-04-28T20:47:26.350Z,400.73
2023-04-28T20:49:54.196Z,401.88
2023-04-28T20:52:21.851Z,405.42
2023-04-28T20:54:49.754Z,416.42
2023-04-28T20:57:17.438Z,384.73
2023-04-28T20:59:45.061Z,390.38
2023-04-28T21:02:12.722Z,390.25
2023-04-28T21:04:41.888Z,392.35
2023-04-28T21:07:09.558Z,397.50
2023-04-28T21:09:37.497Z,407.38
2023-04-28T21:12:05.935Z,408.50
2023-04-28T21:14:35.694Z,412.60
2023-04-28T21:17:04.413Z,407.73
2023-04-28T21:19:32.264Z,413.40
2023-04-28T21:22:02.052Z,398.77
2023-04-28T21:24:29.961Z,403.48
2023-04-28T21:26:58.237Z,416.50
2023-04-28T21:29:27.522Z,404.95
2023-04-28T21:31:55.245Z,407.65
2023-04-28T21:34:22.993Z,416.50
2023-04-28T21:36:50.655Z,430.75
2023-04-28T21:39:19.770Z,426.60
2023-04-28T21:41:47.389Z,417.58
2023-04-28T21:44:15.616Z,406.70
2023-04-28T21:46:43.346Z,397.85
2023-04-28T21:49:10.958Z,415.23
2023-04-28T21:51:42.059Z,402.38
2023-04-28T21:54:09.790Z,396.20
2023-04-28T21:56:38.794Z,409.60
2023-04-28T21:59:06.468Z,420.00
2023-04-28T22:01:34.695Z,399.40
2023-04-28T22:04:03.666Z,403.55
2023-04-28T22:06:32.490Z,399.83
2023-04-28T22:09:01.289Z,411.25
2023-04-28T22:11:29.201Z,408.80
2023-04-28T22:13:58.209Z,385.17
2023-04-28T22:16:25.940Z,420.17
2023-04-28T22:18:53.886Z,416.55
2023-04-28T22:21:21.660Z,420.23
2023-04-28T22:23:49.491Z,416.95
2023-04-28T22:26:28.644Z,403.27
2023-04-28T22:28:57.598Z,404.50
2023-04-28T22:31:25.318Z,411.13
2023-04-28T22:33:53.038Z,418.50
2023-04-28T22:36:21.664Z,405.27
2023-04-28T22:38:49.422Z,411.58
2023-04-28T22:41:17.041Z,434.80
2023-04-28T22:43:44.713Z,420.70
2023-04-28T22:46:13.737Z,420.80
2023-04-28T22:48:42.184Z,400.90
2023-04-28T22:51:09.975Z,409.17
2023-04-28T22:53:37.664Z,401.42
2023-04-28T22:56:05.554Z,414.45
2023-04-28T22:58:33.216Z,404.75
2023-04-28T23:01:01.972Z,401.38
2023-04-28T23:03:31.040Z,414.27
2023-04-28T23:05:58.848Z,401.95
2023-04-28T23:08:26.550Z,400.88
2023-04-28T23:10:56.605Z,411.08
2023-04-28T23:13:25.002Z,402.80
2023-04-28T23:15:52.747Z,393.33
2023-04-28T23:18:20.770Z,401.95
2023-04-28T23:20:49.962Z,399.50
2023-04-28T23:23:17.903Z,390.95
2023-04-28T23:25:45.745Z,410.95
2023-04-28T23:28:13.502Z,383.98
2023-04-28T23:30:41.172Z,388.52
2023-04-28T23:33:09.133Z,382.65
2023-04-28T23:35:36.864Z,405.92
2023-04-28T23:38:06.537Z,423.27
2023-04-28T23:40:34.181Z,401.33
2023-04-28T23:43:02.273Z,398.67
2023-04-28T23:45:30.263Z,387.98
2023-04-28T23:47:58.286Z,368.40
2023-04-28T23:50:26.079Z,386.05
2023-04-28T23:53:29.282Z,389.55
2023-04-28T23:55:56.972Z,372.23
2023-04-28T23:58:24.607Z,392.20
